sensor_id;sensor_type;location;lat;lon;timestamp;temperature;humidity
24800;DHT22;12897;50.812;4.430;2022-11-20T00:00:29;5.70;99.90
24800;DHT22;12897;50.812;4.430;2022-11-20T00:02:58;5.90;99.90
24800;DHT22;12897;50.812;4.430;2022-11-20T00:05:26;5.90;99.90
24800;DHT22;12897;50.812;4.430;2022-11-20T00:08:07;5.90;99.90
24800;DHT22;12897;50.812;4.430;2022-11-20T00:10:43;6.00;99.90
24800;DHT22;12897;50.812;4.430;2022-11-20T00:13:20;6.00;99.90
24800;DHT22;12897;50.812;4.430;2022-11-20T00:15:59;5.90;99.90
24800;DHT22;12897;50.812;4.430;2022-11-20T00:18:35;6.00;99.90
24800;DHT22;12897;50.812;4.430;2022-11-20T00:21:20;5.90;99.90
24800;DHT22;12897;50.812;4.430;2022-11-20T00:24:00;5.90;99.90
24800;DHT22;12897;50.812;4.430;2022-11-20T00:26:29;5.90;99.90
24800;DHT22;12897;50.812;4.430;2022-11-20T00:29:03;5.80;99.90
24800;DHT22;12897;50.812;4.430;2022-11-20T00:31:40;5.80;99.90
24800;DHT22;12897;50.812;4.430;2022-11-20T00:34:20;5.80;99.90
24800;DHT22;12897;50.812;4.430;2022-11-20T00:36:50;5.90;99.90
24800;DHT22;12897;50.812;4.430;2022-11-20T00:42:07;5.70;99.90
24800;DHT22;12897;50.812;4.430;2022-11-20T00:44:37;5.70;99.90
24800;DHT22;12897;50.812;4.430;2022-11-20T00:47:07;5.60;99.90
24800;DHT22;12897;50.812;4.430;2022-11-20T00:49:35;5.50;99.90
24800;DHT22;12897;50.812;4.430;2022-11-20T00:52:06;5.70;99.90
24800;DHT22;12897;50.812;4.430;2022-11-20T00:54:34;5.80;99.90
24800;DHT22;12897;50.812;4.430;2022-11-20T00:57:03;5.90;99.90
24800;DHT22;12897;50.812;4.430;2022-11-20T00:59:37;5.90;99.90
24800;DHT22;12897;50.812;4.430;2022-11-20T01:02:08;5.90;99.90
24800;DHT22;12897;50.812;4.430;2022-11-20T01:04:37;5.90;99.90
24800;DHT22;12897;50.812;4.430;2022-11-20T01:07:04;5.80;99.90
24800;DHT22;12897;50.812;4.430;2022-11-20T01:09:39;5.90;99.90
24800;DHT22;12897;50.812;4.430;2022-11-20T01:12:19;5.80;99.90
24800;DHT22;12897;50.812;4.430;2022-11-20T01:14:35;5.90;99.90
24800;DHT22;12897;50.812;4.430;2022-11-20T01:17:11;6.10;99.90
24800;DHT22;12897;50.812;4.430;2022-11-20T01:19:36;6.10;99.90
24800;DHT22;12897;50.812;4.430;2022-11-20T01:22:12;6.00;99.90
24800;DHT22;12897;50.812;4.430;2022-11-20T01:24:44;6.00;99.90
24800;DHT22;12897;50.812;4.430;2022-11-20T01:27:16;6.00;99.90
24800;DHT22;12897;50.812;4.430;2022-11-20T01:29:51;6.00;99.90
24800;DHT22;12897;50.812;4.430;2022-11-20T01:32:22;5.90;99.90
24800;DHT22;12897;50.812;4.430;2022-11-20T01:34:50;6.00;99.90
24800;DHT22;12897;50.812;4.430;2022-11-20T01:37:20;5.90;99.90
24800;DHT22;12897;50.812;4.430;2022-11-20T01:39:58;5.90;99.90
24800;DHT22;12897;50.812;4.430;2022-11-20T01:42:33;6.10;99.90
24800;DHT22;12897;50.812;4.430;2022-11-20T01:48:45;6.10;99.90
24800;DHT22;12897;50.812;4.430;2022-11-20T01:51:01;6.10;99.90
24800;DHT22;12897;50.812;4.430;2022-11-20T01:53:36;6.20;99.90
24800;DHT22;12897;50.812;4.430;2022-11-20T01:56:08;6.10;99.90
24800;DHT22;12897;50.812;4.430;2022-11-20T01:58:38;6.20;99.90
24800;DHT22;12897;50.812;4.430;2022-11-20T02:01:09;6.20;99.90
24800;DHT22;12897;50.812;4.430;2022-11-20T02:03:40;6.30;99.90
24800;DHT22;12897;50.812;4.430;2022-11-20T02:06:14;6.30;99.90
24800;DHT22;12897;50.812;4.430;2022-11-20T02:08:52;6.40;99.90
24800;DHT22;12897;50.812;4.430;2022-11-20T02:11:30;6.40;99.90
24800;DHT22;12897;50.812;4.430;2022-11-20T02:13:59;6.40;99.90
24800;DHT22;12897;50.812;4.430;2022-11-20T02:16:47;6.40;99.90
24800;DHT22;12897;50.812;4.430;2022-11-20T02:19:30;6.50;99.90
24800;DHT22;12897;50.812;4.430;2022-11-20T02:22:11;6.50;99.90
24800;DHT22;12897;50.812;4.430;2022-11-20T02:24:41;6.60;99.90
24800;DHT22;12897;50.812;4.430;2022-11-20T02:27:13;6.50;99.90
24800;DHT22;12897;50.812;4.430;2022-11-20T02:32:34;6.60;99.90
24800;DHT22;12897;50.812;4.430;2022-11-20T02:37:58;6.40;99.90
24800;DHT22;12897;50.812;4.430;2022-11-20T02:40:29;6.10;99.90
24800;DHT22;12897;50.812;4.430;2022-11-20T02:42:56;6.10;99.90
24800;DHT22;12897;50.812;4.430;2022-11-20T02:45:35;6.20;99.90
24800;DHT22;12897;50.812;4.430;2022-11-20T02:48:11;6.20;99.90
24800;DHT22;12897;50.812;4.430;2022-11-20T02:50:51;6.10;99.90
24800;DHT22;12897;50.812;4.430;2022-11-20T02:53:31;6.20;99.90
24800;DHT22;12897;50.812;4.430;2022-11-20T02:56:06;6.30;99.90
24800;DHT22;12897;50.812;4.430;2022-11-20T02:58:44;6.30;99.90
24800;DHT22;12897;50.812;4.430;2022-11-20T03:01:14;6.10;99.90
24800;DHT22;12897;50.812;4.430;2022-11-20T03:03:42;6.10;99.90
24800;DHT22;12897;50.812;4.430;2022-11-20T03:06:14;6.00;99.90
24800;DHT22;12897;50.812;4.430;2022-11-20T03:08:44;6.00;99.90
24800;DHT22;12897;50.812;4.430;2022-11-20T03:11:15;5.90;99.90
24800;DHT22;12897;50.812;4.430;2022-11-20T03:13:45;6.00;99.90
24800;DHT22;12897;50.812;4.430;2022-11-20T03:16:17;6.10;99.90
24800;DHT22;12897;50.812;4.430;2022-11-20T03:18:51;6.10;99.90
24800;DHT22;12897;50.812;4.430;2022-11-20T03:21:24;6.00;99.90
24800;DHT22;12897;50.812;4.430;2022-11-20T03:23:54;6.10;99.90
24800;DHT22;12897;50.812;4.430;2022-11-20T03:26:25;6.10;99.90
24800;DHT22;12897;50.812;4.430;2022-11-20T03:28:57;6.10;99.90
24800;DHT22;12897;50.812;4.430;2022-11-20T03:31:33;6.20;99.90
24800;DHT22;12897;50.812;4.430;2022-11-20T03:34:04;6.20;99.90
24800;DHT22;12897;50.812;4.430;2022-11-20T03:36:32;6.20;99.90
24800;DHT22;12897;50.812;4.430;2022-11-20T03:39:07;6.10;99.90
24800;DHT22;12897;50.812;4.430;2022-11-20T03:41:36;6.10;99.90
24800;DHT22;12897;50.812;4.430;2022-11-20T03:44:03;5.80;99.90
24800;DHT22;12897;50.812;4.430;2022-11-20T03:46:40;5.70;99.90
24800;DHT22;12897;50.812;4.430;2022-11-20T03:49:06;5.80;99.90
24800;DHT22;12897;50.812;4.430;2022-11-20T03:51:51;5.80;99.90
24800;DHT22;12897;50.812;4.430;2022-11-20T03:54:13;5.80;99.90
24800;DHT22;12897;50.812;4.430;2022-11-20T03:56:44;6.00;99.90
24800;DHT22;12897;50.812;4.430;2022-11-20T03:59:14;6.00;99.90
24800;DHT22;12897;50.812;4.430;2022-11-20T04:01:41;5.80;99.90
24800;DHT22;12897;50.812;4.430;2022-11-20T04:04:19;5.80;99.90
24800;DHT22;12897;50.812;4.430;2022-11-20T04:06:56;5.90;99.90
24800;DHT22;12897;50.812;4.430;2022-11-20T04:09:24;6.10;99.90
24800;DHT22;12897;50.812;4.430;2022-11-20T04:11:58;6.20;99.90
24800;DHT22;12897;50.812;4.430;2022-11-20T04:14:22;6.30;99.90
24800;DHT22;12897;50.812;4.430;2022-11-20T04:16:55;6.40;99.90
24800;DHT22;12897;50.812;4.430;2022-11-20T04:19:33;6.40;99.90
24800;DHT22;12897;50.812;4.430;2022-11-20T04:22:08;6.40;99.90
24800;DHT22;12897;50.812;4.430;2022-11-20T04:24:34;6.50;99.90
24800;DHT22;12897;50.812;4.430;2022-11-20T04:27:04;6.50;99.90
24800;DHT22;12897;50.812;4.430;2022-11-20T04:29:33;6.60;99.90
24800;DHT22;12897;50.812;4.430;2022-11-20T04:32:06;6.50;99.90
24800;DHT22;12897;50.812;4.430;2022-11-20T04:34:30;6.50;99.90
24800;DHT22;12897;50.812;4.430;2022-11-20T04:37:07;6.60;99.90
24800;DHT22;12897;50.812;4.430;2022-11-20T04:39:35;6.60;99.90
24800;DHT22;12897;50.812;4.430;2022-11-20T04:42:04;6.60;99.90
24800;DHT22;12897;50.812;4.430;2022-11-20T04:44:49;6.70;99.90
24800;DHT22;12897;50.812;4.430;2022-11-20T04:47:20;6.60;99.90
24800;DHT22;12897;50.812;4.430;2022-11-20T04:49:50;6.60;99.90
24800;DHT22;12897;50.812;4.430;2022-11-20T04:52:16;6.60;99.90
24800;DHT22;12897;50.812;4.430;2022-11-20T04:54:46;6.60;99.90
24800;DHT22;12897;50.812;4.430;2022-11-20T04:57:15;6.70;99.90
24800;DHT22;12897;50.812;4.430;2022-11-20T04:59:42;6.80;99.90
24800;DHT22;12897;50.812;4.430;2022-11-20T05:02:15;6.70;99.90
24800;DHT22;12897;50.812;4.430;2022-11-20T05:04:39;6.70;99.90
24800;DHT22;12897;50.812;4.430;2022-11-20T05:07:07;6.70;99.90
24800;DHT22;12897;50.812;4.430;2022-11-20T05:09:35;6.70;99.90
24800;DHT22;12897;50.812;4.430;2022-11-20T05:12:07;6.70;99.90
24800;DHT22;12897;50.812;4.430;2022-11-20T05:14:35;6.80;99.90
24800;DHT22;12897;50.812;4.430;2022-11-20T05:17:05;6.80;99.90
24800;DHT22;12897;50.812;4.430;2022-11-20T05:19:37;6.90;99.90
24800;DHT22;12897;50.812;4.430;2022-11-20T05:22:09;6.80;99.90
24800;DHT22;12897;50.812;4.430;2022-11-20T05:24:36;6.70;99.90
24800;DHT22;12897;50.812;4.430;2022-11-20T05:27:05;6.90;99.90
24800;DHT22;12897;50.812;4.430;2022-11-20T05:29:35;7.00;99.90
24800;DHT22;12897;50.812;4.430;2022-11-20T05:32:05;7.00;99.90
24800;DHT22;12897;50.812;4.430;2022-11-20T05:34:37;7.00;99.90
24800;DHT22;12897;50.812;4.430;2022-11-20T05:37:06;7.00;99.90
24800;DHT22;12897;50.812;4.430;2022-11-20T05:39:36;7.00;99.90
24800;DHT22;12897;50.812;4.430;2022-11-20T05:42:04;7.00;99.90
24800;DHT22;12897;50.812;4.430;2022-11-20T05:44:51;7.10;99.90
24800;DHT22;12897;50.812;4.430;2022-11-20T05:47:21;6.90;99.90
24800;DHT22;12897;50.812;4.430;2022-11-20T05:49:48;6.80;99.90
24800;DHT22;12897;50.812;4.430;2022-11-20T05:52:15;6.90;99.90
24800;DHT22;12897;50.812;4.430;2022-11-20T05:54:43;6.90;99.90
24800;DHT22;12897;50.812;4.430;2022-11-20T05:57:13;6.90;99.90
24800;DHT22;12897;50.812;4.430;2022-11-20T05:59:48;6.90;99.90
24800;DHT22;12897;50.812;4.430;2022-11-20T06:02:16;6.90;99.90
24800;DHT22;12897;50.812;4.430;2022-11-20T06:04:48;7.00;99.90
24800;DHT22;12897;50.812;4.430;2022-11-20T06:07:15;7.00;99.90
24800;DHT22;12897;50.812;4.430;2022-11-20T06:09:45;6.90;99.90
24800;DHT22;12897;50.812;4.430;2022-11-20T06:12:12;6.90;99.90
24800;DHT22;12897;50.812;4.430;2022-11-20T06:14:45;7.00;99.90
24800;DHT22;12897;50.812;4.430;2022-11-20T06:17:10;6.90;99.90
24800;DHT22;12897;50.812;4.430;2022-11-20T06:19:38;7.00;99.90
24800;DHT22;12897;50.812;4.430;2022-11-20T06:22:05;6.80;99.90
24800;DHT22;12897;50.812;4.430;2022-11-20T06:24:33;6.80;99.90
24800;DHT22;12897;50.812;4.430;2022-11-20T06:27:01;6.90;99.90
24800;DHT22;12897;50.812;4.430;2022-11-20T06:29:29;7.00;99.90
24800;DHT22;12897;50.812;4.430;2022-11-20T06:31:56;6.80;99.90
24800;DHT22;12897;50.812;4.430;2022-11-20T06:34:24;6.80;99.90
24800;DHT22;12897;50.812;4.430;2022-11-20T06:36:53;6.80;99.90
24800;DHT22;12897;50.812;4.430;2022-11-20T06:39:24;7.00;99.90
24800;DHT22;12897;50.812;4.430;2022-11-20T06:41:52;6.90;99.90
24800;DHT22;12897;50.812;4.430;2022-11-20T06:44:22;6.80;99.90
24800;DHT22;12897;50.812;4.430;2022-11-20T06:46:49;6.80;99.90
24800;DHT22;12897;50.812;4.430;2022-11-20T06:49:19;6.80;99.90
24800;DHT22;12897;50.812;4.430;2022-11-20T06:51:47;6.90;99.90
24800;DHT22;12897;50.812;4.430;2022-11-20T06:54:14;6.80;99.90
24800;DHT22;12897;50.812;4.430;2022-11-20T06:56:42;6.90;99.90
24800;DHT22;12897;50.812;4.430;2022-11-20T06:59:14;6.90;99.90
24800;DHT22;12897;50.812;4.430;2022-11-20T07:01:44;7.00;99.90
24800;DHT22;12897;50.812;4.430;2022-11-20T07:04:13;6.90;99.90
24800;DHT22;12897;50.812;4.430;2022-11-20T07:06:40;6.90;99.90
24800;DHT22;12897;50.812;4.430;2022-11-20T07:09:09;7.00;99.90
24800;DHT22;12897;50.812;4.430;2022-11-20T07:11:37;7.00;99.90
24800;DHT22;12897;50.812;4.430;2022-11-20T07:14:05;7.20;99.90
24800;DHT22;12897;50.812;4.430;2022-11-20T07:16:32;7.30;99.90
24800;DHT22;12897;50.812;4.430;2022-11-20T07:19:01;7.40;99.90
24800;DHT22;12897;50.812;4.430;2022-11-20T07:21:29;7.50;99.90
24800;DHT22;12897;50.812;4.430;2022-11-20T07:23:56;7.40;99.90
24800;DHT22;12897;50.812;4.430;2022-11-20T07:26:24;7.40;99.90
24800;DHT22;12897;50.812;4.430;2022-11-20T07:28:52;7.30;99.90
24800;DHT22;12897;50.812;4.430;2022-11-20T07:31:19;7.30;99.90
24800;DHT22;12897;50.812;4.430;2022-11-20T07:33:49;7.50;99.90
24800;DHT22;12897;50.812;4.430;2022-11-20T07:36:17;7.70;99.90
24800;DHT22;12897;50.812;4.430;2022-11-20T07:38:44;7.60;99.90
24800;DHT22;12897;50.812;4.430;2022-11-20T07:41:12;7.50;99.90
24800;DHT22;12897;50.812;4.430;2022-11-20T07:43:44;7.50;99.90
24800;DHT22;12897;50.812;4.430;2022-11-20T07:46:08;7.40;99.90
24800;DHT22;12897;50.812;4.430;2022-11-20T07:48:39;7.40;99.90
24800;DHT22;12897;50.812;4.430;2022-11-20T07:51:07;7.40;99.90
24800;DHT22;12897;50.812;4.430;2022-11-20T07:53:36;7.50;99.90
24800;DHT22;12897;50.812;4.430;2022-11-20T07:56:12;7.60;99.90
24800;DHT22;12897;50.812;4.430;2022-11-20T07:58:37;7.70;99.90
24800;DHT22;12897;50.812;4.430;2022-11-20T08:01:06;7.60;99.90
24800;DHT22;12897;50.812;4.430;2022-11-20T08:03:36;7.40;99.90
24800;DHT22;12897;50.812;4.430;2022-11-20T08:06:06;7.50;99.90
24800;DHT22;12897;50.812;4.430;2022-11-20T08:08:34;7.50;99.90
24800;DHT22;12897;50.812;4.430;2022-11-20T08:11:04;7.50;99.90
24800;DHT22;12897;50.812;4.430;2022-11-20T08:13:52;7.70;99.90
24800;DHT22;12897;50.812;4.430;2022-11-20T08:16:42;7.70;99.90
24800;DHT22;12897;50.812;4.430;2022-11-20T08:19:06;7.80;99.90
24800;DHT22;12897;50.812;4.430;2022-11-20T08:21:34;7.80;99.90
24800;DHT22;12897;50.812;4.430;2022-11-20T08:24:04;7.80;99.90
24800;DHT22;12897;50.812;4.430;2022-11-20T08:26:38;7.90;99.90
24800;DHT22;12897;50.812;4.430;2022-11-20T08:29:16;8.00;99.90
24800;DHT22;12897;50.812;4.430;2022-11-20T08:31:46;8.10;99.90
24800;DHT22;12897;50.812;4.430;2022-11-20T08:34:14;8.10;99.90
24800;DHT22;12897;50.812;4.430;2022-11-20T08:36:42;8.20;99.90
24800;DHT22;12897;50.812;4.430;2022-11-20T08:39:13;8.20;99.90
24800;DHT22;12897;50.812;4.430;2022-11-20T08:41:46;8.20;99.90
24800;DHT22;12897;50.812;4.430;2022-11-20T08:44:13;8.20;99.90
24800;DHT22;12897;50.812;4.430;2022-11-20T08:46:42;8.20;99.90
24800;DHT22;12897;50.812;4.430;2022-11-20T08:49:17;8.20;99.90
24800;DHT22;12897;50.812;4.430;2022-11-20T08:51:43;8.20;99.90
24800;DHT22;12897;50.812;4.430;2022-11-20T08:54:15;8.30;99.90
24800;DHT22;12897;50.812;4.430;2022-11-20T08:56:44;8.50;99.90
24800;DHT22;12897;50.812;4.430;2022-11-20T08:59:12;8.60;99.90
24800;DHT22;12897;50.812;4.430;2022-11-20T09:01:40;8.90;99.90
24800;DHT22;12897;50.812;4.430;2022-11-20T09:04:09;9.00;99.90
24800;DHT22;12897;50.812;4.430;2022-11-20T09:06:39;9.10;99.90
24800;DHT22;12897;50.812;4.430;2022-11-20T09:09:06;9.00;99.90
24800;DHT22;12897;50.812;4.430;2022-11-20T09:11:35;9.10;99.90
24800;DHT22;12897;50.812;4.430;2022-11-20T09:14:03;9.20;99.90
24800;DHT22;12897;50.812;4.430;2022-11-20T09:16:31;9.30;99.90
24800;DHT22;12897;50.812;4.430;2022-11-20T09:19:01;9.20;99.90
24800;DHT22;12897;50.812;4.430;2022-11-20T09:21:29;9.20;99.90
24800;DHT22;12897;50.812;4.430;2022-11-20T09:23:58;9.20;99.90
24800;DHT22;12897;50.812;4.430;2022-11-20T09:26:28;9.20;99.90
24800;DHT22;12897;50.812;4.430;2022-11-20T09:28:59;9.20;99.90
24800;DHT22;12897;50.812;4.430;2022-11-20T09:31:28;9.40;99.90
24800;DHT22;12897;50.812;4.430;2022-11-20T09:33:56;9.40;99.90
24800;DHT22;12897;50.812;4.430;2022-11-20T09:36:25;9.50;99.90
24800;DHT22;12897;50.812;4.430;2022-11-20T09:38:55;9.50;99.90
24800;DHT22;12897;50.812;4.430;2022-11-20T09:41:56;9.70;99.90
24800;DHT22;12897;50.812;4.430;2022-11-20T09:44:39;9.80;99.90
24800;DHT22;12897;50.812;4.430;2022-11-20T09:55:14;9.70;99.90
24800;DHT22;12897;50.812;4.430;2022-11-20T09:57:51;9.70;99.90
24800;DHT22;12897;50.812;4.430;2022-11-20T10:00:34;9.80;99.90
24800;DHT22;12897;50.812;4.430;2022-11-20T10:03:03;9.90;99.90
24800;DHT22;12897;50.812;4.430;2022-11-20T10:05:35;10.00;99.90
24800;DHT22;12897;50.812;4.430;2022-11-20T10:08:25;9.90;99.90
24800;DHT22;12897;50.812;4.430;2022-11-20T10:16:42;10.40;99.90
24800;DHT22;12897;50.812;4.430;2022-11-20T10:22:18;10.60;99.90
24800;DHT22;12897;50.812;4.430;2022-11-20T10:30:23;10.20;99.90
24800;DHT22;12897;50.812;4.430;2022-11-20T10:33:08;10.30;99.90
24800;DHT22;12897;50.812;4.430;2022-11-20T10:35:44;10.50;99.90
24800;DHT22;12897;50.812;4.430;2022-11-20T10:38:25;10.60;99.90
24800;DHT22;12897;50.812;4.430;2022-11-20T10:41:01;10.60;99.90
24800;DHT22;12897;50.812;4.430;2022-11-20T10:43:32;10.70;99.90
24800;DHT22;12897;50.812;4.430;2022-11-20T10:48:32;10.70;99.90
24800;DHT22;12897;50.812;4.430;2022-11-20T10:56:41;10.60;99.90
24800;DHT22;12897;50.812;4.430;2022-11-20T11:02:12;10.50;99.90
24800;DHT22;12897;50.812;4.430;2022-11-20T11:04:50;10.40;99.90
24800;DHT22;12897;50.812;4.430;2022-11-20T11:07:43;10.40;99.90
24800;DHT22;12897;50.812;4.430;2022-11-20T11:10:28;10.50;99.90
24800;DHT22;12897;50.812;4.430;2022-11-20T11:12:51;10.70;99.90
24800;DHT22;12897;50.812;4.430;2022-11-20T11:15:27;10.70;99.90
24800;DHT22;12897;50.812;4.430;2022-11-20T11:18:03;10.80;99.90
24800;DHT22;12897;50.812;4.430;2022-11-20T11:20:32;10.60;99.90
24800;DHT22;12897;50.812;4.430;2022-11-20T11:23:03;10.70;99.90
24800;DHT22;12897;50.812;4.430;2022-11-20T11:25:36;10.60;99.90
24800;DHT22;12897;50.812;4.430;2022-11-20T11:30:49;10.20;99.90
24800;DHT22;12897;50.812;4.430;2022-11-20T11:33:31;10.30;99.90
24800;DHT22;12897;50.812;4.430;2022-11-20T11:36:04;10.40;99.90
24800;DHT22;12897;50.812;4.430;2022-11-20T11:38:38;10.80;99.90
24800;DHT22;12897;50.812;4.430;2022-11-20T11:41:16;10.80;99.90
24800;DHT22;12897;50.812;4.430;2022-11-20T11:43:53;10.80;99.90
24800;DHT22;12897;50.812;4.430;2022-11-20T11:46:34;10.80;99.90
24800;DHT22;12897;50.812;4.430;2022-11-20T11:57:17;11.00;99.90
24800;DHT22;12897;50.812;4.430;2022-11-20T11:59:47;10.90;99.90
24800;DHT22;12897;50.812;4.430;2022-11-20T12:05:23;10.70;99.90
24800;DHT22;12897;50.812;4.430;2022-11-20T12:07:57;10.50;99.90
24800;DHT22;12897;50.812;4.430;2022-11-20T12:10:48;10.40;99.90
24800;DHT22;12897;50.812;4.430;2022-11-20T12:13:20;10.50;99.90
24800;DHT22;12897;50.812;4.430;2022-11-20T12:15:51;10.30;99.90
24800;DHT22;12897;50.812;4.430;2022-11-20T12:18:20;10.30;99.90
24800;DHT22;12897;50.812;4.430;2022-11-20T12:20:58;10.10;99.90
24800;DHT22;12897;50.812;4.430;2022-11-20T12:23:44;10.10;99.90
24800;DHT22;12897;50.812;4.430;2022-11-20T12:26:31;10.00;99.90
24800;DHT22;12897;50.812;4.430;2022-11-20T12:28:53;9.90;99.90
24800;DHT22;12897;50.812;4.430;2022-11-20T12:31:43;9.80;99.90
24800;DHT22;12897;50.812;4.430;2022-11-20T12:34:23;10.00;99.90
24800;DHT22;12897;50.812;4.430;2022-11-20T12:37:20;10.00;99.90
24800;DHT22;12897;50.812;4.430;2022-11-20T12:40:01;10.00;99.90
24800;DHT22;12897;50.812;4.430;2022-11-20T12:51:13;9.80;99.90
24800;DHT22;12897;50.812;4.430;2022-11-20T12:53:57;10.00;99.90
24800;DHT22;12897;50.812;4.430;2022-11-20T13:01:42;10.00;99.90
24800;DHT22;12897;50.812;4.430;2022-11-20T13:06:54;10.30;99.90
24800;DHT22;12897;50.812;4.430;2022-11-20T13:09:25;10.10;99.90
24800;DHT22;12897;50.812;4.430;2022-11-20T13:20:15;10.20;99.90
24800;DHT22;12897;50.812;4.430;2022-11-20T13:25:29;9.90;99.90
24800;DHT22;12897;50.812;4.430;2022-11-20T13:27:59;10.10;99.90
24800;DHT22;12897;50.812;4.430;2022-11-20T13:30:27;9.90;99.90
24800;DHT22;12897;50.812;4.430;2022-11-20T13:35:55;9.90;99.90
24800;DHT22;12897;50.812;4.430;2022-11-20T13:38:16;10.00;99.90
24800;DHT22;12897;50.812;4.430;2022-11-20T13:40:58;10.00;99.90
24800;DHT22;12897;50.812;4.430;2022-11-20T13:43:43;10.00;99.90
24800;DHT22;12897;50.812;4.430;2022-11-20T13:49:37;9.90;99.90
24800;DHT22;12897;50.812;4.430;2022-11-20T13:52:28;9.90;99.90
24800;DHT22;12897;50.812;4.430;2022-11-20T13:57:56;9.80;99.90
24800;DHT22;12897;50.812;4.430;2022-11-20T14:00:30;9.80;99.90
24800;DHT22;12897;50.812;4.430;2022-11-20T14:03:10;9.80;99.90
24800;DHT22;12897;50.812;4.430;2022-11-20T14:06:00;9.60;99.90
24800;DHT22;12897;50.812;4.430;2022-11-20T14:08:35;9.50;99.90
24800;DHT22;12897;50.812;4.430;2022-11-20T14:14:32;9.70;99.90
24800;DHT22;12897;50.812;4.430;2022-11-20T14:16:36;9.60;99.90
24800;DHT22;12897;50.812;4.430;2022-11-20T14:22:08;9.40;99.90
24800;DHT22;12897;50.812;4.430;2022-11-20T14:24:38;9.50;99.90
24800;DHT22;12897;50.812;4.430;2022-11-20T14:29:54;9.50;99.90
24800;DHT22;12897;50.812;4.430;2022-11-20T14:32:27;9.40;99.90
24800;DHT22;12897;50.812;4.430;2022-11-20T14:34:52;9.40;99.90
24800;DHT22;12897;50.812;4.430;2022-11-20T14:37:29;9.40;99.90
24800;DHT22;12897;50.812;4.430;2022-11-20T14:39:59;9.40;99.90
24800;DHT22;12897;50.812;4.430;2022-11-20T14:45:11;9.40;99.90
24800;DHT22;12897;50.812;4.430;2022-11-20T14:47:38;9.40;99.90
24800;DHT22;12897;50.812;4.430;2022-11-20T14:50:29;9.40;99.90
24800;DHT22;12897;50.812;4.430;2022-11-20T14:52:53;9.40;99.90
24800;DHT22;12897;50.812;4.430;2022-11-20T14:55:36;9.40;99.90
24800;DHT22;12897;50.812;4.430;2022-11-20T14:58:25;9.40;99.90
24800;DHT22;12897;50.812;4.430;2022-11-20T15:01:05;9.40;99.90
24800;DHT22;12897;50.812;4.430;2022-11-20T15:04:01;9.30;99.90
24800;DHT22;12897;50.812;4.430;2022-11-20T15:06:28;9.30;99.90
24800;DHT22;12897;50.812;4.430;2022-11-20T15:08:53;9.20;99.90
24800;DHT22;12897;50.812;4.430;2022-11-20T15:11:19;9.20;99.90
24800;DHT22;12897;50.812;4.430;2022-11-20T15:13:47;9.30;99.90
24800;DHT22;12897;50.812;4.430;2022-11-20T15:16:18;9.40;99.90
24800;DHT22;12897;50.812;4.430;2022-11-20T15:18:49;9.40;99.90
24800;DHT22;12897;50.812;4.430;2022-11-20T15:21:21;9.40;99.90
24800;DHT22;12897;50.812;4.430;2022-11-20T15:23:52;9.30;99.90
24800;DHT22;12897;50.812;4.430;2022-11-20T15:26:38;9.40;99.90
24800;DHT22;12897;50.812;4.430;2022-11-20T15:28:56;9.40;99.90
24800;DHT22;12897;50.812;4.430;2022-11-20T15:31:24;9.40;99.90
24800;DHT22;12897;50.812;4.430;2022-11-20T15:33:53;9.40;99.90
24800;DHT22;12897;50.812;4.430;2022-11-20T15:36:25;9.40;99.90
24800;DHT22;12897;50.812;4.430;2022-11-20T15:38:54;9.30;99.90
24800;DHT22;12897;50.812;4.430;2022-11-20T15:41:26;9.30;99.90
24800;DHT22;12897;50.812;4.430;2022-11-20T15:44:00;9.30;99.90
24800;DHT22;12897;50.812;4.430;2022-11-20T15:46:29;9.40;99.90
24800;DHT22;12897;50.812;4.430;2022-11-20T15:49:16;9.50;99.90
24800;DHT22;12897;50.812;4.430;2022-11-20T15:51:35;9.60;99.90
24800;DHT22;12897;50.812;4.430;2022-11-20T15:54:13;9.60;99.90
24800;DHT22;12897;50.812;4.430;2022-11-20T15:56:41;9.60;99.90
24800;DHT22;12897;50.812;4.430;2022-11-20T15:59:08;9.60;99.90
24800;DHT22;12897;50.812;4.430;2022-11-20T16:01:42;9.50;99.90
24800;DHT22;12897;50.812;4.430;2022-11-20T16:04:12;9.60;99.90
24800;DHT22;12897;50.812;4.430;2022-11-20T16:06:42;9.50;99.90
24800;DHT22;12897;50.812;4.430;2022-11-20T16:09:10;9.50;99.90
24800;DHT22;12897;50.812;4.430;2022-11-20T16:11:39;9.60;99.90
24800;DHT22;12897;50.812;4.430;2022-11-20T16:14:10;9.60;99.90
24800;DHT22;12897;50.812;4.430;2022-11-20T16:16:59;9.60;99.90
24800;DHT22;12897;50.812;4.430;2022-11-20T16:19:28;9.60;99.90
24800;DHT22;12897;50.812;4.430;2022-11-20T16:21:57;9.60;99.90
24800;DHT22;12897;50.812;4.430;2022-11-20T16:24:28;9.60;99.90
24800;DHT22;12897;50.812;4.430;2022-11-20T16:27:06;9.60;99.90
24800;DHT22;12897;50.812;4.430;2022-11-20T16:29:29;9.50;99.90
24800;DHT22;12897;50.812;4.430;2022-11-20T16:31:58;9.50;99.90
24800;DHT22;12897;50.812;4.430;2022-11-20T16:34:28;9.50;99.90
24800;DHT22;12897;50.812;4.430;2022-11-20T16:37:00;9.60;99.90
24800;DHT22;12897;50.812;4.430;2022-11-20T16:39:32;9.60;99.90
24800;DHT22;12897;50.812;4.430;2022-11-20T16:42:04;9.60;99.90
24800;DHT22;12897;50.812;4.430;2022-11-20T16:44:39;9.60;99.90
24800;DHT22;12897;50.812;4.430;2022-11-20T16:47:01;9.60;99.90
24800;DHT22;12897;50.812;4.430;2022-11-20T16:49:29;9.60;99.90
24800;DHT22;12897;50.812;4.430;2022-11-20T16:51:59;9.70;99.90
24800;DHT22;12897;50.812;4.430;2022-11-20T16:54:28;9.70;99.90
24800;DHT22;12897;50.812;4.430;2022-11-20T16:57:00;9.70;99.90
24800;DHT22;12897;50.812;4.430;2022-11-20T17:02:02;9.60;99.90
24800;DHT22;12897;50.812;4.430;2022-11-20T17:04:34;9.60;99.90
24800;DHT22;12897;50.812;4.430;2022-11-20T17:07:00;9.60;99.90
24800;DHT22;12897;50.812;4.430;2022-11-20T17:09:28;9.70;99.90
24800;DHT22;12897;50.812;4.430;2022-11-20T17:11:56;9.80;99.90
24800;DHT22;12897;50.812;4.430;2022-11-20T17:14:35;9.80;99.90
24800;DHT22;12897;50.812;4.430;2022-11-20T17:17:02;9.80;99.90
24800;DHT22;12897;50.812;4.430;2022-11-20T17:19:33;9.90;99.90
24800;DHT22;12897;50.812;4.430;2022-11-20T17:22:07;9.90;99.90
24800;DHT22;12897;50.812;4.430;2022-11-20T17:24:38;9.90;99.90
24800;DHT22;12897;50.812;4.430;2022-11-20T17:27:07;9.90;99.90
24800;DHT22;12897;50.812;4.430;2022-11-20T17:29:34;10.00;99.90
24800;DHT22;12897;50.812;4.430;2022-11-20T17:32:04;9.90;99.90
24800;DHT22;12897;50.812;4.430;2022-11-20T17:34:33;9.90;99.90
24800;DHT22;12897;50.812;4.430;2022-11-20T17:37:04;9.90;99.90
24800;DHT22;12897;50.812;4.430;2022-11-20T17:39:38;9.90;99.90
24800;DHT22;12897;50.812;4.430;2022-11-20T17:42:04;9.80;99.90
24800;DHT22;12897;50.812;4.430;2022-11-20T17:44:50;9.70;99.90
24800;DHT22;12897;50.812;4.430;2022-11-20T17:47:22;9.60;99.90
24800;DHT22;12897;50.812;4.430;2022-11-20T17:49:51;9.70;99.90
24800;DHT22;12897;50.812;4.430;2022-11-20T17:52:21;9.60;99.90
24800;DHT22;12897;50.812;4.430;2022-11-20T17:54:48;9.60;99.90
24800;DHT22;12897;50.812;4.430;2022-11-20T17:57:19;9.60;99.90
24800;DHT22;12897;50.812;4.430;2022-11-20T18:00:05;9.60;99.90
24800;DHT22;12897;50.812;4.430;2022-11-20T18:02:39;9.70;99.90
24800;DHT22;12897;50.812;4.430;2022-11-20T18:05:07;9.80;99.90